Time;durP1;ratioP1;P1;durP2;ratioP2;P2;SDS_P1;SDS_P2;PMS_P1;PMS_P2;Temp;Humidity;BMP_temperature;BMP_pressure;BME280_temperature;BME280_humidity;BME280_pressure;Samples;Min_cycle;Max_cycle;Signal;HPM_P1;HPM_P2
2022/04/02 00:00:14;;;;;;;2.30;1.77;;;1.40;99.90;;;;;;4971623;28;20489;-54
2022/04/02 00:02:41;;;;;;;2.40;1.90;;;1.40;99.90;;;;;;4971659;28;20472;-54
2022/04/02 00:05:09;;;;;;;2.20;1.90;;;1.40;99.90;;;;;;4967642;28;20933;-53
2022/04/02 00:07:37;;;;;;;2.33;2.13;;;1.40;99.90;;;;;;4969208;28;20955;-53
2022/04/02 00:10:05;;;;;;;2.13;1.93;;;1.40;99.90;;;;;;4971647;28;20517;-53
2022/04/02 00:12:32;;;;;;;3.97;2.20;;;1.30;99.90;;;;;;4969457;28;20470;-55
2022/04/02 00:14:58;;;;;;;1.93;1.80;;;1.30;99.90;;;;;;4973169;28;20525;-53
2022/04/02 00:17:25;;;;;;;2.10;1.90;;;1.30;99.90;;;;;;4969959;28;20538;-54
2022/04/02 00:19:52;;;;;;;2.00;1.80;;;1.30;99.90;;;;;;4972060;28;20493;-54
2022/04/02 00:22:19;;;;;;;2.70;2.00;;;1.30;99.90;;;;;;4971560;28;20469;-54
2022/04/02 00:24:47;;;;;;;3.60;2.67;;;1.20;99.90;;;;;;4971817;28;20496;-53
2022/04/02 00:27:13;;;;;;;10.70;3.10;;;1.20;99.90;;;;;;4968371;28;20465;-53
2022/04/02 00:29:41;;;;;;;2.40;2.20;;;1.20;99.90;;;;;;4962778;28;21110;-53
2022/04/02 00:32:09;;;;;;;3.13;2.90;;;1.10;99.90;;;;;;4968857;28;20481;-55
2022/04/02 00:34:36;;;;;;;2.87;2.70;;;1.10;99.90;;;;;;4969902;28;20497;-53
2022/04/02 00:37:03;;;;;;;2.77;2.43;;;1.10;99.90;;;;;;4972926;28;20457;-54
2022/04/02 00:39:30;;;;;;;4.03;2.40;;;1.10;99.90;;;;;;4968082;28;20553;-54
2022/04/02 00:41:58;;;;;;;5.87;2.67;;;1.10;99.90;;;;;;4964534;28;20488;-54
2022/04/02 00:44:26;;;;;;;5.80;3.70;;;1.00;99.90;;;;;;4972859;28;20454;-54
2022/04/02 00:46:52;;;;;;;3.73;2.47;;;1.00;99.90;;;;;;4971846;28;20469;-53
2022/04/02 00:49:20;;;;;;;2.83;2.63;;;1.00;99.90;;;;;;4969504;28;20482;-53
2022/04/02 00:51:47;;;;;;;2.80;2.40;;;0.90;99.90;;;;;;4972468;28;20927;-53
2022/04/02 00:54:15;;;;;;;3.03;2.07;;;0.90;99.90;;;;;;4980313;28;20496;-53
2022/04/02 00:56:43;;;;;;;3.07;2.57;;;0.90;99.90;;;;;;4972597;28;21058;-54
2022/04/02 00:59:12;;;;;;;3.73;2.90;;;0.90;99.90;;;;;;4966861;28;20475;-53
2022/04/02 01:01:39;;;;;;;1.87;1.77;;;0.80;99.90;;;;;;4969438;28;20858;-54
2022/04/02 01:04:07;;;;;;;3.23;2.27;;;0.80;99.90;;;;;;4966784;28;20493;-54
2022/04/02 01:06:35;;;;;;;2.93;2.57;;;0.80;99.90;;;;;;4969192;28;20459;-54
2022/04/02 01:09:02;;;;;;;2.60;2.10;;;0.80;99.90;;;;;;4966674;28;20490;-53
2022/04/02 01:11:36;;;;;;;2.27;2.07;;;0.70;99.90;;;;;;4958436;28;20571;-54
2022/04/02 01:14:03;;;;;;;3.17;2.87;;;0.70;99.90;;;;;;4964679;28;20557;-54
2022/04/02 01:16:32;;;;;;;2.23;2.10;;;0.70;99.90;;;;;;4965653;28;20492;-54
2022/04/02 01:18:59;;;;;;;3.87;2.90;;;0.60;99.90;;;;;;4973903;28;20453;-54
2022/04/02 01:21:27;;;;;;;4.60;2.70;;;0.60;99.90;;;;;;4975537;28;20512;-55
2022/04/02 01:23:55;;;;;;;4.70;2.63;;;0.60;99.90;;;;;;4974400;28;20499;-54
2022/04/02 01:26:22;;;;;;;3.60;2.30;;;0.60;99.90;;;;;;4973762;28;20488;-54
2022/04/02 01:28:53;;;;;;;5.90;3.60;;;0.60;99.90;;;;;;4973994;28;20464;-54
2022/04/02 01:31:21;;;;;;;3.27;2.97;;;0.50;99.90;;;;;;4974759;28;20485;-54
2022/04/02 01:33:49;;;;;;;7.13;4.50;;;0.50;99.90;;;;;;4974668;28;20458;-55
2022/04/02 01:36:16;;;;;;;5.23;3.80;;;0.50;99.90;;;;;;4971634;28;20512;-54
2022/04/02 01:38:43;;;;;;;8.77;4.57;;;0.50;99.90;;;;;;4963040;28;20540;-54
2022/04/02 01:41:11;;;;;;;4.67;4.20;;;0.50;99.90;;;;;;4975718;28;20500;-55
2022/04/02 01:43:37;;;;;;;4.50;3.00;;;0.40;99.90;;;;;;4972452;28;20549;-53
2022/04/02 01:46:05;;;;;;;2.83;2.63;;;0.40;99.90;;;;;;4973980;28;20493;-53
2022/04/02 01:48:33;;;;;;;2.93;2.30;;;0.40;99.90;;;;;;4967041;28;20457;-56
2022/04/02 01:51:00;;;;;;;5.70;2.40;;;0.40;97.70;;;;;;4972671;28;20564;-53
2022/04/02 01:53:27;;;;;;;2.00;1.67;;;0.40;97.40;;;;;;4974028;28;20644;-55
2022/04/02 01:55:54;;;;;;;2.30;2.10;;;0.30;96.10;;;;;;4975743;28;20524;-53
2022/04/02 01:58:22;;;;;;;1.87;1.77;;;0.30;94.90;;;;;;4973870;28;20461;-54
2022/04/02 02:00:49;;;;;;;2.90;2.13;;;0.30;94.20;;;;;;4973138;28;20512;-55
2022/04/02 02:03:15;;;;;;;1.80;1.70;;;0.30;92.70;;;;;;4969162;28;20568;-54
2022/04/02 02:05:42;;;;;;;3.73;1.80;;;0.30;90.80;;;;;;4970956;28;20552;-54
2022/04/02 02:08:09;;;;;;;5.43;2.00;;;0.30;88.80;;;;;;4972136;28;20553;-54
2022/04/02 02:10:35;;;;;;;18.53;3.50;;;0.30;88.10;;;;;;4971341;28;21040;-51
2022/04/02 02:13:03;;;;;;;2.80;1.87;;;0.20;88.70;;;;;;4971020;28;20562;-54
2022/04/02 02:15:31;;;;;;;6.40;1.80;;;0.30;86.80;;;;;;4972029;28;20544;-52
2022/04/02 02:17:58;;;;;;;2.23;2.00;;;0.20;84.90;;;;;;4974586;28;20496;-54
2022/04/02 02:20:24;;;;;;;2.43;2.00;;;0.20;84.50;;;;;;4970228;28;20485;-53
2022/04/02 02:22:51;;;;;;;2.07;1.87;;;0.20;82.30;;;;;;4972476;28;20461;-55
2022/04/02 02:25:19;;;;;;;2.50;1.90;;;0.20;84.00;;;;;;4973502;28;20565;-53
2022/04/02 02:27:47;;;;;;;2.67;1.83;;;0.20;81.10;;;;;;4971593;28;20462;-53
2022/04/02 02:30:14;;;;;;;4.63;1.63;;;0.20;79.60;;;;;;4972316;28;20489;-55
2022/04/02 02:32:43;;;;;;;2.03;1.90;;;0.20;77.90;;;;;;4967415;28;20580;-55
2022/04/02 02:38:06;;;;;;;2.00;1.90;;;0.20;78.60;;;;;;4968308;28;21169;-53
2022/04/02 02:40:33;;;;;;;1.90;1.80;;;0.20;79.60;;;;;;4966609;28;20519;-53
2022/04/02 02:42:59;;;;;;;2.20;1.83;;;0.30;79.20;;;;;;4972168;28;20500;-53
2022/04/02 02:45:26;;;;;;;4.50;2.13;;;0.20;77.70;;;;;;4969138;28;20562;-53
2022/04/02 02:47:54;;;;;;;1.60;1.50;;;0.20;78.10;;;;;;4972725;28;20998;-55
2022/04/02 02:50:21;;;;;;;3.03;2.00;;;0.20;77.90;;;;;;4970859;28;20489;-53
2022/04/02 02:52:47;;;;;;;4.93;2.00;;;0.20;77.20;;;;;;4966238;28;20489;-54
2022/04/02 02:55:14;;;;;;;3.57;2.07;;;0.20;76.90;;;;;;4972191;28;20560;-54
2022/04/02 02:57:42;;;;;;;3.13;1.70;;;0.30;76.80;;;;;;4967158;28;20913;-55
2022/04/02 03:00:10;;;;;;;2.00;1.80;;;0.30;77.10;;;;;;4970540;28;20903;-53
2022/04/02 03:02:37;;;;;;;2.13;1.93;;;0.30;77.60;;;;;;4973573;28;20469;-53
2022/04/02 03:05:10;;;;;;;2.27;1.90;;;0.30;74.80;;;;;;4971471;28;20461;-53
2022/04/02 03:07:37;;;;;;;2.37;1.80;;;0.30;77.50;;;;;;4970345;28;20474;-53
2022/04/02 03:10:04;;;;;;;2.30;1.40;;;0.30;77.60;;;;;;4970879;28;20576;-53
2022/04/02 03:12:32;;;;;;;2.30;1.93;;;0.30;77.70;;;;;;4971898;28;21030;-54
2022/04/02 03:14:59;;;;;;;2.73;2.03;;;0.30;78.70;;;;;;4970828;28;20979;-53
2022/04/02 03:17:26;;;;;;;2.37;2.03;;;0.30;78.60;;;;;;4970991;23;20944;-47
2022/04/02 03:19:52;;;;;;;4.93;2.10;;;0.30;78.40;;;;;;4953034;28;20929;-48
2022/04/02 03:22:21;;;;;;;2.60;2.00;;;0.30;78.90;;;;;;4953137;28;20470;-48
2022/04/02 03:24:47;;;;;;;2.33;1.90;;;0.20;78.20;;;;;;4951937;28;20505;-47
2022/04/02 03:27:14;;;;;;;2.10;2.00;;;0.20;76.10;;;;;;4952922;28;20516;-47
2022/04/02 03:29:41;;;;;;;3.87;1.80;;;0.20;75.80;;;;;;4953520;28;20495;-47
2022/04/02 03:32:08;;;;;;;2.63;1.80;;;0.10;75.40;;;;;;4952100;28;20553;-47
2022/04/02 03:34:35;;;;;;;2.10;1.93;;;0.10;74.20;;;;;;4953175;28;20513;-47
2022/04/02 03:37:01;;;;;;;2.80;1.90;;;0.00;71.80;;;;;;4950130;28;20521;-48
2022/04/02 03:39:29;;;;;;;4.10;1.70;;;0.00;70.30;;;;;;4952842;28;20471;-48
2022/04/02 03:41:55;;;;;;;2.00;1.90;;;0.00;69.80;;;;;;4952605;28;20494;-48
2022/04/02 03:44:22;;;;;;;3.13;1.80;;;0.00;69.40;;;;;;4951294;28;21028;-48
2022/04/02 03:49:33;;;;;;;2.70;1.90;;;0.00;68.60;;;;;;4953314;28;20457;-48
2022/04/02 03:51:59;;;;;;;3.50;2.17;;;-0.10;67.20;;;;;;4952201;28;20474;-48
2022/04/02 03:54:26;;;;;;;4.60;1.80;;;-0.20;66.00;;;;;;4952144;28;20506;-48
2022/04/02 03:56:54;;;;;;;1.93;1.50;;;-0.20;64.70;;;;;;4948546;29;20544;-48
2022/04/02 03:59:20;;;;;;;3.70;2.07;;;-0.10;63.50;;;;;;4952745;28;20493;-48
2022/04/02 04:01:47;;;;;;;3.13;1.60;;;-0.10;64.30;;;;;;4950468;28;20590;-48
2022/04/02 04:04:13;;;;;;;2.73;1.87;;;-0.20;64.50;;;;;;4952439;28;20496;-48
2022/04/02 04:06:40;;;;;;;5.23;1.70;;;-0.20;62.30;;;;;;4951928;28;20500;-47
2022/04/02 04:09:08;;;;;;;2.77;2.23;;;-0.30;59.60;;;;;;4949085;28;20469;-47
2022/04/02 04:11:34;;;;;;;3.10;1.93;;;-0.30;57.30;;;;;;4951566;28;20490;-47
2022/04/02 04:14:02;;;;;;;4.00;2.03;;;-0.20;56.60;;;;;;4951342;28;20542;-47
2022/04/02 04:16:29;;;;;;;4.03;1.50;;;-0.30;56.70;;;;;;4951183;28;20647;-47
2022/04/02 04:18:55;;;;;;;1.77;1.67;;;-0.30;56.20;;;;;;4953135;28;20497;-48
2022/04/02 04:21:22;;;;;;;3.13;1.57;;;-0.30;55.50;;;;;;4952511;28;20495;-47
2022/04/02 04:23:48;;;;;;;1.47;1.40;;;-0.20;57.20;;;;;;4951485;28;20505;-47
2022/04/02 04:26:15;;;;;;;2.47;2.03;;;-0.20;57.30;;;;;;4951228;28;20501;-47
2022/04/02 04:28:42;;;;;;;4.03;2.00;;;-0.20;57.70;;;;;;4951407;28;20476;-47
2022/04/02 04:31:10;;;;;;;2.03;1.77;;;-0.30;56.80;;;;;;4951959;28;20529;-48
2022/04/02 04:33:37;;;;;;;5.17;2.33;;;-0.20;57.20;;;;;;4954060;28;20470;-48
2022/04/02 04:36:04;;;;;;;2.00;1.80;;;-0.30;55.60;;;;;;4950319;28;20471;-49
2022/04/02 04:38:31;;;;;;;2.07;1.87;;;-0.30;55.10;;;;;;4951499;28;20513;-47
2022/04/02 04:40:58;;;;;;;1.53;1.43;;;-0.30;51.50;;;;;;4955633;28;20497;-52
2022/04/02 04:43:24;;;;;;;4.90;2.20;;;-0.30;51.20;;;;;;4964322;28;20466;-50
2022/04/02 04:45:51;;;;;;;3.47;2.80;;;-0.30;52.40;;;;;;4963247;28;21231;-49
2022/04/02 04:48:20;;;;;;;1.40;1.30;;;-0.30;52.60;;;;;;4958470;28;20505;-49
2022/04/02 04:50:47;;;;;;;1.80;1.70;;;-0.30;48.50;;;;;;4957899;28;20541;-48
2022/04/02 04:53:13;;;;;;;2.47;1.93;;;-0.40;47.10;;;;;;4956278;28;20475;-47
2022/04/02 04:55:40;;;;;;;1.53;1.43;;;-0.40;44.90;;;;;;4954819;28;20564;-47
2022/04/02 04:58:07;;;;;;;3.30;2.40;;;-0.40;43.80;;;;;;4955908;28;20496;-47
2022/04/02 05:00:34;;;;;;;1.70;1.70;;;-0.40;43.40;;;;;;4956155;28;20501;-47
2022/04/02 05:03:00;;;;;;;4.13;1.70;;;-0.40;45.30;;;;;;4955635;28;20490;-48
2022/04/02 05:05:31;;;;;;;3.97;2.00;;;-0.30;43.50;;;;;;4954847;28;20498;-48
2022/04/02 05:07:59;;;;;;;3.60;2.40;;;-0.30;44.50;;;;;;4955296;28;20509;-47
2022/04/02 05:10:26;;;;;;;2.20;1.97;;;-0.20;44.70;;;;;;4955283;28;20514;-48
2022/04/02 05:12:53;;;;;;;1.60;1.50;;;-0.30;43.00;;;;;;4957566;28;20512;-47
2022/04/02 05:15:20;;;;;;;1.80;1.70;;;-0.20;46.10;;;;;;4956873;28;20477;-46
2022/04/02 05:17:46;;;;;;;2.60;1.67;;;-0.20;44.50;;;;;;4955787;28;20533;-47
2022/04/02 05:20:14;;;;;;;2.00;1.90;;;-0.10;46.50;;;;;;4953211;28;20497;-47
2022/04/02 05:22:42;;;;;;;2.53;1.80;;;-0.10;48.30;;;;;;4954931;28;20467;-47
2022/04/02 05:25:10;;;;;;;3.03;2.03;;;0.00;50.90;;;;;;4953080;28;20462;-47
2022/04/02 05:27:37;;;;;;;2.43;2.20;;;0.10;52.00;;;;;;4953768;28;20486;-48
2022/04/02 05:30:04;;;;;;;4.83;2.77;;;0.20;52.00;;;;;;4948765;29;20486;-47
2022/04/02 05:32:31;;;;;;;3.17;1.67;;;0.20;53.60;;;;;;4952241;28;20968;-47
2022/04/02 05:34:58;;;;;;;3.03;2.40;;;0.20;55.30;;;;;;4957122;29;20454;-47
2022/04/02 05:37:25;;;;;;;4.63;2.03;;;0.30;54.90;;;;;;4953584;28;20528;-47
2022/04/02 05:39:53;;;;;;;2.13;1.93;;;0.30;56.20;;;;;;4955851;28;20462;-47
2022/04/02 05:42:21;;;;;;;3.13;1.97;;;0.50;58.40;;;;;;4951030;28;20482;-47
2022/04/02 05:44:48;;;;;;;7.23;2.20;;;0.50;59.50;;;;;;4955599;29;20545;-47
2022/04/02 05:47:14;;;;;;;2.70;2.00;;;0.60;62.30;;;;;;4948511;28;21007;-47
2022/04/02 05:49:41;;;;;;;2.50;2.23;;;0.70;62.60;;;;;;4955154;28;20542;-48
2022/04/02 05:52:07;;;;;;;1.90;1.73;;;0.80;64.10;;;;;;4953663;28;20514;-48
2022/04/02 05:54:36;;;;;;;13.53;2.70;;;0.90;67.70;;;;;;4956855;28;20491;-48
2022/04/02 05:57:05;;;;;;;3.87;3.23;;;1.00;69.90;;;;;;4945738;29;20483;-47
2022/04/02 05:59:33;;;;;;;3.70;2.80;;;1.10;72.00;;;;;;4936809;29;20447;-48
2022/04/02 06:02:00;;;;;;;2.33;2.13;;;1.10;75.20;;;;;;4950821;29;20489;-47
2022/04/02 06:04:28;;;;;;;3.20;2.70;;;1.30;78.70;;;;;;4955845;29;20960;-48
2022/04/02 06:06:54;;;;;;;4.13;2.23;;;1.40;79.80;;;;;;4954344;29;20549;-47
2022/04/02 06:09:21;;;;;;;2.40;2.00;;;1.50;81.10;;;;;;4959524;28;20960;-47
2022/04/02 06:11:47;;;;;;;2.43;2.33;;;1.60;84.00;;;;;;4967650;28;20509;-48
2022/04/02 06:14:15;;;;;;;2.53;2.33;;;1.60;87.90;;;;;;4956225;29;20458;-48
2022/04/02 06:16:43;;;;;;;2.30;2.10;;;1.80;89.50;;;;;;4955604;28;20505;-47
2022/04/02 06:19:10;;;;;;;2.10;2.00;;;1.80;92.40;;;;;;4955732;29;20457;-47
2022/04/02 06:21:36;;;;;;;4.00;2.30;;;1.90;90.90;;;;;;4956875;29;20466;-47
2022/04/02 06:24:06;;;;;;;3.90;2.60;;;2.00;89.90;;;;;;4952021;28;20494;-47
2022/04/02 06:26:32;;;;;;;3.83;2.10;;;2.00;96.40;;;;;;4955257;28;20486;-46
2022/04/02 06:28:59;;;;;;;2.63;2.10;;;2.10;97.10;;;;;;4951179;29;20447;-47
2022/04/02 06:31:27;;;;;;;2.60;2.13;;;2.20;98.80;;;;;;4955801;28;20490;-48
2022/04/02 06:33:54;;;;;;;6.63;2.97;;;2.20;98.80;;;;;;4958295;28;20491;-47
2022/04/02 06:36:21;;;;;;;3.13;2.53;;;2.30;99.90;;;;;;4947856;28;20921;-47
2022/04/02 06:38:49;;;;;;;4.87;2.77;;;2.30;99.90;;;;;;4951843;28;20474;-47
2022/04/02 06:41:15;;;;;;;4.80;3.20;;;2.50;99.90;;;;;;4953773;28;20458;-47
2022/04/02 06:43:42;;;;;;;7.37;3.43;;;2.50;99.90;;;;;;4955279;29;20482;-47
2022/04/02 06:46:08;;;;;;;10.70;3.20;;;2.60;99.90;;;;;;4953919;28;20494;-47
2022/04/02 06:48:36;;;;;;;5.50;2.60;;;2.60;99.90;;;;;;4955550;28;20454;-47
2022/04/02 06:51:03;;;;;;;4.30;2.67;;;2.60;99.90;;;;;;4949981;28;21075;-48
2022/04/02 06:53:29;;;;;;;4.83;3.03;;;2.70;99.90;;;;;;4956431;29;20482;-46
2022/04/02 06:55:56;;;;;;;4.20;3.10;;;2.80;99.90;;;;;;4955698;28;20450;-47
2022/04/02 06:58:28;;;;;;;5.90;2.70;;;2.80;99.90;;;;;;4953704;28;20498;-47
2022/04/02 07:00:55;;;;;;;4.80;2.50;;;2.90;99.90;;;;;;4953029;28;20541;-48
2022/04/02 07:03:22;;;;;;;3.87;2.53;;;3.00;99.90;;;;;;4955413;29;20505;-47
2022/04/02 07:05:50;;;;;;;3.40;3.07;;;3.10;99.90;;;;;;4954091;28;20960;-47
2022/04/02 07:08:17;;;;;;;2.87;1.93;;;3.00;99.90;;;;;;4953166;28;20545;-48
2022/04/02 07:10:44;;;;;;;6.23;2.70;;;3.20;99.90;;;;;;4945480;29;20458;-47
2022/04/02 07:13:10;;;;;;;2.90;2.47;;;3.30;99.90;;;;;;4943983;28;20992;-48
2022/04/02 07:15:39;;;;;;;2.57;1.70;;;3.30;99.90;;;;;;4954243;29;20447;-47
2022/04/02 07:18:07;;;;;;;5.30;2.10;;;3.40;99.90;;;;;;4951006;28;20880;-48
2022/04/02 07:20:35;;;;;;;7.73;2.20;;;3.50;99.90;;;;;;4953019;29;20490;-47
2022/04/02 07:23:03;;;;;;;5.63;2.10;;;3.50;99.90;;;;;;4954946;28;20493;-48
2022/04/02 07:25:30;;;;;;;2.93;2.73;;;3.60;99.90;;;;;;4951704;28;20566;-47
2022/04/02 07:27:58;;;;;;;3.13;2.93;;;3.70;99.90;;;;;;4952908;28;20518;-47
2022/04/02 07:30:25;;;;;;;3.73;2.20;;;3.80;99.90;;;;;;4950452;28;20490;-47
2022/04/02 07:32:52;;;;;;;3.37;1.70;;;3.70;99.90;;;;;;4938266;28;21032;-47
2022/04/02 07:35:19;;;;;;;4.30;1.80;;;3.60;99.90;;;;;;4945510;28;20554;-47
2022/04/02 07:37:58;;;;;;;2.67;1.80;;;3.70;99.90;;;;;;4952185;28;21188;-48
2022/04/02 07:40:29;;;;;;;2.37;1.73;;;3.70;99.90;;;;;;4945386;28;20490;-48
2022/04/02 07:43:04;;;;;;;2.13;1.93;;;3.80;99.90;;;;;;4942909;28;20554;-48
2022/04/02 07:45:35;;;;;;;3.53;2.30;;;4.00;99.90;;;;;;4955299;28;20498;-47
2022/04/02 07:48:07;;;;;;;2.30;1.70;;;4.00;99.90;;;;;;4954395;28;20514;-47
2022/04/02 07:50:34;;;;;;;3.00;2.70;;;4.20;99.90;;;;;;4942440;28;20475;-47
2022/04/02 07:53:06;;;;;;;1.90;1.77;;;4.30;99.90;;;;;;4946103;28;20514;-48
2022/04/02 07:55:35;;;;;;;8.53;1.80;;;4.50;99.90;;;;;;4943554;28;20553;-47
2022/04/02 07:58:03;;;;;;;2.17;1.63;;;4.50;1.40;;;;;;4944155;28;20517;-47
2022/04/02 08:00:33;;;;;;;4.93;1.73;;;4.70;99.90;;;;;;4945187;28;20513;-48
2022/04/02 08:03:01;;;;;;;1.83;1.50;;;5.10;99.90;;;;;;4945913;28;20486;-47
2022/04/02 08:05:28;;;;;;;7.90;1.70;;;5.40;99.90;;;;;;4945639;28;20459;-47
2022/04/02 08:07:57;;;;;;;2.10;1.90;;;5.50;99.90;;;;;;4945915;28;20573;-47
2022/04/02 08:10:26;;;;;;;2.07;1.90;;;5.60;99.90;;;;;;4945548;28;20467;-46
2022/04/02 08:12:54;;;;;;;1.50;1.40;;;5.20;99.90;;;;;;4945398;28;20581;-47
2022/04/02 08:15:22;;;;;;;1.63;1.37;;;5.60;99.90;;;;;;4945482;28;20566;-46
2022/04/02 08:17:52;;;;;;;4.40;1.80;;;5.70;99.90;;;;;;4948712;28;20493;-47
2022/04/02 08:20:18;;;;;;;1.53;1.30;;;5.80;99.90;;;;;;4947006;28;20477;-46
2022/04/02 08:22:46;;;;;;;4.63;1.83;;;5.60;99.90;;;;;;4945813;28;20498;-48
2022/04/02 08:25:14;;;;;;;4.57;1.67;;;5.30;99.90;;;;;;4941486;28;20581;-47
2022/04/02 08:27:54;;;;;;;1.23;1.23;;;5.60;99.90;;;;;;4944689;28;20565;-47
2022/04/02 08:30:29;;;;;;;3.13;1.70;;;5.60;99.90;;;;;;4945992;28;20547;-48
2022/04/02 08:33:28;;;;;;;2.10;1.90;;;5.70;99.90;;;;;;4942018;28;20513;-46
2022/04/02 08:36:03;;;;;;;1.53;1.43;;;5.60;99.90;;;;;;4949094;28;20553;-46
2022/04/02 08:38:39;;;;;;;2.50;1.33;;;5.90;99.90;;;;;;4946499;28;20925;-48
2022/04/02 08:41:47;;;;;;;4.23;1.77;;;5.90;99.90;;;;;;4943896;28;20458;-48
2022/04/02 08:44:54;;;;;;;1.67;1.57;;;6.10;99.90;;;;;;4942416;28;20549;-48
2022/04/02 08:47:53;;;;;;;6.70;2.20;;;6.20;99.90;;;;;;4947304;28;20482;-47
2022/04/02 08:50:28;;;;;;;2.63;2.20;;;6.50;99.90;;;;;;4940894;28;20557;-46
2022/04/02 08:52:56;;;;;;;1.60;1.50;;;6.60;99.90;;;;;;4942150;28;20827;-47
2022/04/02 08:55:30;;;;;;;1.67;1.50;;;6.60;99.90;;;;;;4945905;28;20999;-47
2022/04/02 08:58:25;;;;;;;2.37;2.10;;;6.30;99.90;;;;;;4946555;28;20574;-47
2022/04/02 09:01:07;;;;;;;2.50;1.50;;;6.70;99.90;;;;;;4947000;28;20493;-47
2022/04/02 09:04:11;;;;;;;4.63;2.00;;;7.00;99.90;;;;;;4950515;28;20516;-48
2022/04/02 09:07:10;;;;;;;1.60;1.30;;;7.40;99.90;;;;;;4948810;28;20564;-47
2022/04/02 09:09:58;;;;;;;1.17;1.17;;;7.40;99.90;;;;;;4949571;28;20556;-47
2022/04/02 09:12:35;;;;;;;4.53;1.30;;;7.10;99.90;;;;;;4947877;28;20564;-48
2022/04/02 09:15:10;;;;;;;2.47;1.53;;;6.90;99.90;;;;;;4951009;28;20465;-47
2022/04/02 09:17:39;;;;;;;3.40;1.93;;;7.10;99.90;;;;;;4951112;28;20493;-48
2022/04/02 09:20:39;;;;;;;1.53;1.40;;;7.30;99.90;;;;;;4948549;29;20892;-48
2022/04/02 09:23:10;;;;;;;1.30;1.20;;;7.80;99.90;;;;;;4952268;28;21019;-48
2022/04/02 09:26:34;;;;;;;2.90;1.90;;;8.30;99.90;;;;;;4965745;23;20536;-51
2022/04/02 09:29:16;;;;;;;3.20;2.27;;;8.40;99.90;;;;;;4946096;29;20557;-50
2022/04/02 09:32:26;;;;;;;2.57;1.90;;;8.10;99.90;;;;;;4949046;29;20577;-51
2022/04/02 09:35:36;;;;;;;4.17;1.70;;;7.50;99.90;;;;;;4951962;28;20554;-51
2022/04/02 09:38:40;;;;;;;14.50;1.67;;;7.00;99.90;;;;;;4953514;28;20462;-51
2022/04/02 09:41:24;;;;;;;3.40;1.87;;;7.00;99.90;;;;;;4948148;29;20509;-50
2022/04/02 09:44:00;;;;;;;5.07;2.03;;;6.80;99.90;;;;;;4952881;29;20465;-50
2022/04/02 09:47:00;;;;;;;1.90;1.70;;;6.70;99.90;;;;;;4945864;29;20574;-52
2022/04/02 09:49:34;;;;;;;2.07;1.93;;;6.80;99.90;;;;;;4929440;29;20561;-50
2022/04/02 09:52:05;;;;;;;1.87;1.70;;;6.50;99.90;;;;;;4948447;29;20927;-51
2022/04/02 09:54:38;;;;;;;1.93;1.50;;;6.50;99.90;;;;;;4940170;29;20493;-50
2022/04/02 09:57:17;;;;;;;2.33;2.00;;;6.40;99.90;;;;;;4942689;29;20498;-50
2022/04/02 10:00:00;;;;;;;1.60;1.50;;;6.20;99.90;;;;;;4944285;29;20549;-52
2022/04/02 10:02:43;;;;;;;2.60;2.00;;;6.50;99.90;;;;;;4942480;29;20572;-51
2022/04/02 10:05:15;;;;;;;2.50;2.17;;;6.60;99.90;;;;;;4945797;28;20578;-51
2022/04/02 10:07:59;;;;;;;2.60;1.47;;;6.80;99.90;;;;;;4948648;29;20602;-51
2022/04/02 10:10:27;;;;;;;1.70;1.60;;;7.10;99.90;;;;;;4947931;29;20594;-50
2022/04/02 10:12:57;;;;;;;3.37;2.20;;;7.50;99.90;;;;;;4944086;29;20506;-50
2022/04/02 10:15:24;;;;;;;3.00;1.90;;;7.80;99.90;;;;;;4938206;29;20573;-51
2022/04/02 10:17:52;;;;;;;5.43;2.20;;;7.50;99.90;;;;;;4949453;29;20557;-50
2022/04/02 10:20:20;;;;;;;1.50;1.40;;;7.90;99.90;;;;;;4951681;28;20995;-52
2022/04/02 10:22:48;;;;;;;1.70;1.60;;;7.80;99.90;;;;;;4954196;28;20557;-51
2022/04/02 10:25:15;;;;;;;5.53;2.30;;;8.40;99.90;;;;;;4949461;28;20498;-50
2022/04/02 10:27:44;;;;;;;2.60;1.80;;;8.30;99.90;;;;;;4957360;28;20978;-50
2022/04/02 10:30:14;;;;;;;4.03;2.30;;;8.00;99.90;;;;;;4951812;29;20462;-51
2022/04/02 10:32:55;;;;;;;2.13;1.70;;;8.20;99.90;;;;;;4946469;29;20491;-51
2022/04/02 10:35:23;;;;;;;1.57;1.47;;;7.60;99.90;;;;;;4944946;28;20517;-51
2022/04/02 10:38:05;;;;;;;3.60;2.30;;;7.30;99.90;;;;;;4947097;29;20913;-50
2022/04/02 10:40:33;;;;;;;5.50;2.27;;;7.10;99.90;;;;;;4951291;29;20537;-51
2022/04/02 10:43:04;;;;;;;2.07;1.97;;;7.60;99.90;;;;;;4947005;28;20462;-51
2022/04/02 10:45:35;;;;;;;3.07;1.57;;;7.80;99.90;;;;;;4946987;29;20519;-50
2022/04/02 10:48:09;;;;;;;2.03;1.93;;;7.90;99.90;;;;;;4951130;28;20486;-50
2022/04/02 10:50:37;;;;;;;1.63;1.53;;;8.10;99.90;;;;;;4942752;29;20647;-51
2022/04/02 10:53:06;;;;;;;2.30;1.40;;;7.80;99.90;;;;;;4941778;29;20493;-51
2022/04/02 10:55:33;;;;;;;3.27;1.77;;;7.60;99.90;;;;;;4950068;29;20513;-51
2022/04/02 10:58:00;;;;;;;1.47;1.47;;;7.30;99.90;;;;;;4948622;29;20470;-51
2022/04/02 11:00:28;;;;;;;6.40;1.53;;;7.30;99.90;;;;;;4947485;29;20790;-50
2022/04/02 11:03:04;;;;;;;2.27;1.70;;;7.20;99.90;;;;;;4939867;29;20536;-51
2022/04/02 11:05:35;;;;;;;3.17;1.90;;;6.70;99.90;;;;;;4941195;29;21072;-50
2022/04/02 11:08:05;;;;;;;2.03;1.93;;;6.40;99.90;;;;;;4943361;29;20546;-50
2022/04/02 11:10:35;;;;;;;3.43;2.10;;;6.30;99.90;;;;;;4944665;29;20479;-51
2022/04/02 11:13:04;;;;;;;4.43;1.80;;;6.10;99.90;;;;;;4952126;29;20554;-51
2022/04/02 11:15:32;;;;;;;2.57;1.70;;;5.90;99.90;;;;;;4954331;29;20475;-50
2022/04/02 11:18:01;;;;;;;11.13;1.70;;;6.00;99.90;;;;;;4953865;28;20461;-50
2022/04/02 11:20:29;;;;;;;10.83;2.20;;;6.10;99.90;;;;;;4954787;29;20550;-50
2022/04/02 11:23:10;;;;;;;4.23;1.60;;;6.10;99.90;;;;;;4954159;29;20470;-51
2022/04/02 11:25:39;;;;;;;6.37;1.80;;;6.40;99.90;;;;;;4953319;29;21059;-50
2022/04/02 11:28:12;;;;;;;2.83;1.73;;;6.40;99.90;;;;;;4953588;29;20470;-51
2022/04/02 11:30:40;;;;;;;5.50;2.07;;;6.40;99.90;;;;;;4952486;29;20474;-50
2022/04/02 11:33:10;;;;;;;3.13;1.60;;;6.60;99.90;;;;;;4954374;29;20486;-50
2022/04/02 11:35:39;;;;;;;7.03;5.30;;;6.80;99.90;;;;;;4954629;29;20530;-51
2022/04/02 11:38:14;;;;;;;3.23;1.47;;;6.80;99.90;;;;;;4948985;29;20471;-50
2022/04/02 11:40:46;;;;;;;4.20;1.50;;;6.90;99.90;;;;;;4943480;29;20470;-51
2022/04/02 11:43:14;;;;;;;1.57;1.47;;;6.50;99.90;;;;;;4945382;29;20598;-50
2022/04/02 11:45:41;;;;;;;4.43;1.80;;;6.70;99.90;;;;;;4948696;28;21145;-50
2022/04/02 11:48:14;;;;;;;4.63;2.97;;;7.10;99.90;;;;;;4943537;29;20586;-50
2022/04/02 11:50:43;;;;;;;20.63;2.90;;;7.00;99.90;;;;;;4950982;29;20486;-51
2022/04/02 11:53:10;;;;;;;2.27;2.00;;;6.30;99.90;;;;;;4949184;29;20523;-49
2022/04/02 11:55:38;;;;;;;7.03;2.60;;;6.20;99.90;;;;;;4939948;29;20516;-51
2022/04/02 11:58:07;;;;;;;3.03;1.90;;;6.10;99.90;;;;;;4943659;28;20550;-50
2022/04/02 12:00:37;;;;;;;7.80;2.13;;;5.90;99.90;;;;;;4940047;29;20909;-50
2022/04/02 12:03:06;;;;;;;31.30;2.83;;;5.80;99.90;;;;;;4941536;28;20904;-50
2022/04/02 12:05:41;;;;;;;2.37;2.17;;;5.50;99.90;;;;;;4947124;29;20491;-50
2022/04/02 12:08:08;;;;;;;1.93;1.80;;;5.40;99.90;;;;;;4945068;29;20463;-51
2022/04/02 12:10:43;;;;;;;3.20;2.23;;;5.40;99.90;;;;;;4943798;29;20552;-50
2022/04/02 12:13:10;;;;;;;4.00;2.03;;;5.40;99.90;;;;;;4947300;29;20588;-51
2022/04/02 12:15:37;;;;;;;4.23;1.70;;;5.50;99.90;;;;;;4944335;29;20492;-51
2022/04/02 12:18:07;;;;;;;2.70;1.67;;;5.80;99.90;;;;;;4951400;28;20478;-51
2022/04/02 12:20:36;;;;;;;1.50;1.40;;;5.90;99.90;;;;;;4945374;28;20466;-50
2022/04/02 12:23:08;;;;;;;2.17;2.07;;;5.90;99.90;;;;;;4940306;29;20462;-51
2022/04/02 12:25:36;;;;;;;5.73;2.00;;;6.10;99.90;;;;;;4940049;28;21008;-50
2022/04/02 12:28:12;;;;;;;1.70;1.40;;;6.30;99.90;;;;;;4945286;28;20549;-51
2022/04/02 12:30:40;;;;;;;3.80;2.13;;;6.60;99.90;;;;;;4942899;29;20565;-51
2022/04/02 12:33:09;;;;;;;18.93;2.00;;;6.50;99.90;;;;;;4942931;29;20988;-50
2022/04/02 12:35:37;;;;;;;1.80;1.70;;;7.30;99.90;;;;;;4942656;29;20478;-50
2022/04/02 12:38:06;;;;;;;5.93;1.57;;;7.40;99.90;;;;;;4940688;28;20601;-51
2022/04/02 12:40:42;;;;;;;2.30;1.70;;;7.40;99.90;;;;;;4944362;29;20463;-50
2022/04/02 12:43:10;;;;;;;2.00;1.87;;;7.00;99.90;;;;;;4942442;29;20969;-50
2022/04/02 12:45:38;;;;;;;2.73;2.00;;;6.60;99.90;;;;;;4945787;29;20477;-50
2022/04/02 12:48:06;;;;;;;2.63;1.87;;;5.60;99.90;;;;;;4945796;29;20924;-50
2022/04/02 12:50:36;;;;;;;6.57;1.30;;;5.90;99.90;;;;;;4939620;29;20471;-50
2022/04/02 12:53:04;;;;;;;1.80;1.20;;;6.00;99.90;;;;;;4945346;29;20532;-51
2022/04/02 12:55:32;;;;;;;3.13;2.43;;;6.00;99.90;;;;;;4940880;29;21311;-50
2022/04/02 12:58:03;;;;;;;5.27;2.10;;;5.80;99.90;;;;;;4942318;28;20473;-50
2022/04/02 13:00:32;;;;;;;1.80;1.47;;;5.60;99.90;;;;;;4943848;28;20565;-50
2022/04/02 13:02:59;;;;;;;3.37;2.87;;;5.60;99.90;;;;;;4941642;29;20549;-51
2022/04/02 13:05:43;;;;;;;2.10;1.70;;;5.60;99.90;;;;;;4942332;29;20525;-50
2022/04/02 13:08:23;;;;;;;15.23;4.13;;;5.50;99.90;;;;;;4940877;29;20454;-51
2022/04/02 13:10:54;;;;;;;4.17;1.90;;;5.60;99.90;;;;;;4950127;28;20473;-50
2022/04/02 13:13:38;;;;;;;3.90;2.17;;;5.70;99.90;;;;;;4952383;28;20494;-50
2022/04/02 13:16:06;;;;;;;2.67;2.03;;;5.80;99.90;;;;;;4945352;29;20595;-51